KJAN/JAN METAR and TAF weather

Enter ICAO airport designator
Station Type Date Time Source
KJAN METAR 2020/06/06 20:54 UTC NOAA

KJAN 062054Z 06009KT 10SM SCT032 BKN250 31/22 A2988 RMK AO2 SLP111 T03110222 58023


Station Type Date Time Source
KJAN Decoded METAR 2020/06/06 20:54 UTC NOAA

Jackson, Jackson International Airport, MS, United States (KJAN) 32-19-11N 090-04-39W 89M
Jun 06, 2020 - 04:54 PM EDT / 2020.06.06 2054 UTC
Wind: from the ENE (060 degrees) at 10 MPH (9 KT):0
Visibility: 10 mile(s):0
Sky conditions: mostly cloudy
Temperature: 88.0 F (31.1 C)
Heat index: 94.6 F (34.8 C):1
Dew Point: 72.0 F (22.2 C)
Relative Humidity: 59%
Pressure (altimeter): 29.88 in. Hg (1011 hPa)
Pressure tendency: 0.07 inches (2.3 hPa) lower than three hours ago
ob: KJAN 062054Z 06009KT 10SM SCT032 BKN250 31/22 A2988 RMK AO2 SLP111 T03110222 58023
cycle: 21

Station Type Date Time Source
KJAN TAF 2020/06/06 18:40 UTC NOAA

TAF KJAN 061737Z 0618/0718 07010G15KT P6SM SCT025
FM070100 07007KT P6SM BKN100
FM071200 06018G25KT P6SM OVC025

Example: see airport list